This is the latest recevied weather packets stored in our database for station/object JH0KSP-13. If no packets are shown the sender has not sent any weather packets the latest 10 day(s).
| Time | Temp. | Humidity | Pressure | Rain* | Wind** | Luminosity | Snow |
|---|---|---|---|---|---|---|---|
| 1777955216 | 22.22° C | 28% | 1018.8 hPa | 0 mm | - | - | - |
| 1777954016 | 21.11° C | 26% | 1019.1 hPa | 0 mm | - | - | - |
| 1777943409 | 16.11° C | 44% | 1020 hPa | 0 mm | - | - | - |
| 1777942809 | 16.11° C | 45% | 1020 hPa | 0 mm | - | - | - |
| 1777941609 | 15° C | 47% | 1020.1 hPa | 0 mm | - | - | - |
| 1777940816 | 13.89° C | 49% | 1020.2 hPa | 0 mm | - | - | - |
| 1777939616 | 12.78° C | 51% | 1020.2 hPa | 0 mm | - | - | - |
| 1777934817 | 10° C | 67% | 1019.9 hPa | 0 mm | - | - | - |
| 1777933617 | 8.89° C | 72% | 1019.7 hPa | 0 mm | - | - | - |
| 1777932415 | 8.89° C | 73% | 1019.6 hPa | 0 mm | - | - | - |
| 1777930016 | 7.78° C | 78% | 1019.3 hPa | 0 mm | - | - | - |
| 1777928817 | 7.22° C | 80% | 1018.8 hPa | 0 mm | - | - | - |
| 1777925409 | 7.22° C | 80% | 1017.2 hPa | 0 mm | - | - | - |
| 1777925216 | 6.11° C | 80% | 1017.2 hPa | 0 mm | - | - | - |
| 1777922816 | 7.22° C | 75% | 1015.6 hPa | 0 mm | - | - | - |
| 1777919217 | 7.22° C | 92% | 1014.6 hPa | 0 mm | - | - | - |
| 1777918016 | 7.22° C | 95% | 1014.3 hPa | 0 mm | - | - | - |
| 1777916817 | 7.22° C | 96% | 1013.9 hPa | 0 mm | - | - | - |
| 1777915615 | 7.78° C | 97% | 1013.4 hPa | 0 mm | - | - | - |
| 1777914417 | 7.78° C | 96% | 1013.1 hPa | 0 mm | - | - | - |
| 1777913217 | 7.78° C | 93% | 1013 hPa | 0 mm | - | - | - |
| 1777912016 | 7.78° C | 91% | 1012.8 hPa | 0 mm | - | - | - |
| 1777910816 | 8.89° C | 89% | 1012.6 hPa | 0 mm | - | - | - |
| 1777908416 | 8.89° C | 87% | 1012.2 hPa | 0 mm | - | - | - |
| 1777907216 | 8.89° C | 87% | 1012 hPa | 0 mm | - | - | - |
* Rain latest hour (hover to see other rain measurements)
** Current wind speed in m/s (hover to see current wind gust speed)